Terminal Aerodrome Forecast
Issued by NWS Green Bay, WI

Current Version | Previous Version | Text Only | Print | Product List | Glossary On
Versions: 1 2 3 4 5 6 7 8 9 10 11 12 13 14 15 16 17 18 19 20 21 22 23 24 25 26 27 28 29 30 31 32 33 34 35 36 37 38 39 40 41 42
000
FTUS43 KGRB 222000 AAA
TAFGRB
TAF AMD
KGRB 222050Z 2221/2318 10010KT 4SM BR BKN015 OVC040
      TEMPO 2222/2302 2SM -RASNPL BR OVC009
     FM230200 07013G20KT 1 1/2SM -RAPL BR OVC008
     FM231000 05014G22KT 2SM -RAPL BR OVC006
     FM231400 07008KT 3SM -RASN BR OVC006
      TEMPO 2314/2318 1SM -SN OVC003=

USA.gov is the U.S. government's official web portal to all federal, state and local government web resources and services.